Главная страница
METAR-TAF:

METAR-TAF

Аэропорты :

Farmingdale, Нью-Йорк, США

широта: 40-44-03N, долгота: 073-25-01W, высота над уровнем моря: 24 м

Текущие метеонаблюдения

Эта сводка был подготовлена 54 минут назад, в 00:53 UTC
Ветер 13 Узел от северо-западный с порывами до 22 Узел
Температура -1°C
Влажность 43%
Давление 1018 hPa
Видимость: 16.1 км
ясное небо

METAR: KFRG 130053Z 32013G22KT 10SM CLR M01/M12 A3007 RMK AO2 SLP183 T10061117

Время: 20:47 (01:47 UTC)


TAF: отсутствует

Метеонаблюдения и прогнозы для более 4000 аэропортов (сводки METAR и TAF).

Имеющиеся станции представлены на карте желтыми и красными точками.

Чтобы увидеть название станции, наведите на нее мышь.

Затем щелкните, чтобы увидеть метеонаблюдения и метеопрогнозы.

Управление картой: чтобы увеличить масштаб, щелкните зеленые кнопки с черным крестиком; чтобы уменьшить масштаб, щелкните зеленую кнопку с тире; для просмотра соседних карт щелкайте зеленые стрелки.


METAR-TAF: